x

Ne Burgeo Bank (44255) Wave Buoy

5:00pm - Wed 27th May 2015 All times are ADT. -3 hours from GMT.

  • Sig Wave height 5.6ft
  • Peak Period 7s
  • Wind
    9mph
  • Sea Temp 42°f
  • Sea Pressure 1020.7mb
  • Ne Burgeo Bank
  • Ne Burgeo Bank

More Historic Weather Station data

Upgrade to MSW Pro to gain access to the past 30 days of data for over 8000 Wavebouys and Weather Stations around the globe.

Join Pro

Comparision Forecast

View Surf forecast
   
Wed 05/27 5:00pm 5.5ft 7s 9
mph
1020.7mb 42f
4:00pm 6ft 8s 9 11 mph 1020.4mb 43f
3:00pm 6ft 7s 7
mph
1020.3mb 42f
2:00pm 6ft 7s 4 7 mph 1020.4mb 42f
1:00pm 6.5ft 8s 9
mph
1020.6mb 43f
12:00pm 6ft 8s 9
mph
1020.5mb 43f
11:00am 6.5ft 8s 9
mph
1020.8mb 43f
10:00am 7ft 8s 7 11 mph 1020.5mb 43f
9:00am 7ft 8s 7 9 mph 1020.3mb 43f
2:00am 9ft 7s 13 16 mph 1018.6mb 41f
1:00am 9ft 7s 22 29 mph 1017.9mb 41f
12:00am 8ft 7s 22 27 mph 1017.9mb 41f
Tue 05/26 11:00pm 9ft 7s 25 29 mph 1018.3mb 41f
10:00pm 7.5ft 6s 27 38 mph 1018.9mb 41f
9:00pm 7ft 6s 29 34 mph 1019.3mb 41f
8:00pm 5.5ft 7s 25 31 mph 1019.5mb 41f
7:00pm 5ft 8s 22 29 mph 1020.5mb 42f
6:00pm 5ft 8s 13 16 mph 1021.7mb 42f
5:00pm 4.5ft 8s 11 13 mph 1022.9mb 42f
4:00pm 4.5ft 7s 9 11 mph 1022.9mb 42f
3:00pm 4.5ft 8s 9 11 mph 1023mb 42f
2:00pm 4.5ft 6s 4
mph
1022.8mb 43f
1:00pm 4.5ft 7s 2
mph
1023mb 43f
12:00pm 4ft 8s 4 7 mph 1023.4mb 42f
11:00am 4ft 6s 4 7 mph 1023mb 42f
10:00am 4.5ft 8s 7 9 mph 1022.8mb 42f
7:00am 4.5ft 8s 7 9 mph 1022.2mb 42f
6:00am 4.5ft 6s 4
mph
1021.8mb 42f
5:00am 5ft 8s 7 9 mph 1021.3mb 42f
2:00am 4ft 8s 9 11 mph 1021mb 43f
1:00am 4.5ft 7s 9 11 mph 1021mb 43f
12:00am 4.5ft 8s 9 11 mph 1021.4mb 43f
Mon 05/25 11:00pm 4.5ft 8s 9
mph
1021.2mb 44f
10:00pm 4.5ft 8s 9 11 mph 1021.2mb 43f
9:00pm 4ft 8s 9 11 mph 1020.6mb 43f
8:00pm 4ft 8s 7 9 mph 1020.6mb 43f
7:00pm 4.5ft 8s 9
mph
1020.5mb 43f
6:00pm 4.5ft 7s 11 13 mph 1020.1mb 43f
5:00pm 5ft 8s 9 11 mph 1020mb 44f
4:00pm 5.5ft 8s 9
mph
1019.9mb 43f
3:00pm 6ft 8s 9 11 mph 1020mb 43f
2:00pm 5.5ft 8s 4 7 mph 1020.5mb 43f
1:00pm 6ft 8s 4
mph
1020.9mb 43f
12:00pm 6ft 8s 2 4 mph 1021.3mb 42f
9:00am 7ft 8s 7 9 mph 1021.2mb 42f
8:00am 7ft 8s 7 9 mph 1020.7mb 42f
7:00am 7.5ft 8s 11 13 mph 1020.4mb 41f
6:00am 7.5ft 8s 11 13 mph 1019.9mb 41f
5:00am 8.5ft 8s 11 13 mph 1019.6mb 41f
4:00am 8ft 8s 9 11 mph 1019.1mb 41f
3:00am 7ft 8s 7 11 mph 1019mb 41f
2:00am 8ft 8s 11 13 mph 1018.5mb 41f
1:00am 9ft 9s 11 16 mph 1018.5mb 41f
12:00am 9ft 8s 9 11 mph 1018.9mb 41f
Sun 05/24 11:00pm 9.5ft 8s 20 25 mph 1018.2mb 41f
10:00pm 8.5ft 7s 22 27 mph 1017.9mb 41f
9:00pm 9ft 8s 25 29 mph 1017.3mb 41f
8:00pm 9ft 7s 22 29 mph 1016.6mb 41f
7:00pm 9ft 7s 27 34 mph 1016.4mb 41f
6:00pm 9.5ft 7s 27 36 mph 1016.3mb 41f
5:00pm 9ft 9s 27 34 mph 1016.6mb 41f
4:00pm 9ft 7s 25 29 mph 1016.9mb 41f
3:00pm 9ft 8s 25 31 mph 1017.4mb 41f
2:00pm 8.5ft 8s 20 25 mph 1017.7mb 41f
11:00am 10ft 7s 16 20 mph 1017.8mb 41f
10:00am 10ft 7s 20 22 mph 1017.3mb 40f
9:00am 10ft 6s 25 29 mph 1016.6mb 40f
8:00am 10ft 6s 27 34 mph 1015.9mb 40f
7:00am 10ft 6s 29 34 mph 1014.9mb 41f
6:00am 9ft 9s 29 36 mph 1014.1mb 41f
5:00am 8.5ft 9s 27 34 mph 1013.2mb 41f
4:00am 8ft 10s 27 31 mph 1012.8mb 41f
3:00am 7.5ft 11s 29 34 mph 1012.7mb 41f
2:00am 7ft 8s 25 31 mph 1012.8mb 42f
1:00am 7ft 9s 22 29 mph 1012.7mb 42f
12:00am 6.5ft 8s 16 18 mph 1013mb 42f
Sat 05/23 11:00pm 7.5ft 11s 11 13 mph 1012.5mb 42f
10:00pm 8ft 10s 13 16 mph 1012.4mb 42f